createdAt,value
2017-11-04T00:02:01.859Z,12.93
2017-11-04T00:04:30.235Z,13.04
2017-11-04T00:06:58.710Z,13.19
2017-11-04T00:09:27.920Z,13.14
2017-11-04T00:11:56.333Z,13.12
2017-11-04T00:14:25.491Z,13.03
2017-11-04T00:16:54.302Z,12.89
2017-11-04T00:19:22.661Z,12.82
2017-11-04T00:21:51.376Z,12.63
2017-11-04T00:24:20.788Z,12.81
2017-11-04T00:26:49.908Z,12.89
2017-11-04T00:29:18.278Z,12.98
2017-11-04T00:31:46.642Z,13.20
2017-11-04T00:34:15.767Z,13.27
2017-11-04T00:36:44.114Z,13.20
2017-11-04T00:39:13.651Z,13.15
2017-11-04T00:41:42.006Z,13.08
2017-11-04T00:44:12.820Z,12.98
2017-11-04T00:46:42.071Z,12.87
2017-11-04T00:49:10.412Z,12.88
2017-11-04T00:51:39.758Z,12.68
2017-11-04T00:54:08.134Z,12.56
2017-11-04T00:56:36.470Z,12.35
2017-11-04T00:59:04.829Z,12.41
2017-11-04T01:01:34.253Z,12.37
2017-11-04T01:04:03.382Z,12.27
2017-11-04T01:06:31.728Z,12.25
2017-11-04T01:09:00.868Z,12.36
2017-11-04T01:11:30.790Z,12.16
2017-11-04T01:13:59.120Z,12.06
2017-11-04T01:16:27.605Z,12.08
2017-11-04T01:18:55.942Z,12.08
2017-11-04T01:21:24.291Z,12.10
2017-11-04T01:23:53.914Z,12.03
2017-11-04T01:26:22.267Z,11.92
2017-11-04T01:28:50.614Z,11.76
2017-11-04T01:31:19.981Z,11.72
2017-11-04T01:33:49.332Z,11.74
2017-11-04T01:36:18.650Z,11.64
2017-11-04T01:38:47.028Z,11.72
2017-11-04T01:41:15.612Z,11.65
2017-11-04T01:43:44.215Z,11.56
2017-11-04T01:46:13.458Z,11.53
2017-11-04T01:48:41.831Z,11.59
2017-11-04T01:51:10.592Z,11.63
2017-11-04T01:53:38.873Z,11.60
2017-11-04T01:56:07.216Z,11.39
2017-11-04T01:58:36.818Z,11.42
2017-11-04T02:01:05.206Z,11.37
2017-11-04T02:03:33.719Z,11.36
2017-11-04T02:06:02.316Z,11.24
2017-11-04T02:08:31.135Z,11.41
2017-11-04T02:10:59.485Z,11.51
2017-11-04T02:13:27.851Z,11.39
2017-11-04T02:15:56.222Z,11.35
2017-11-04T02:18:26.534Z,11.43
2017-11-04T02:20:55.596Z,11.41
2017-11-04T02:23:23.991Z,11.51
2017-11-04T02:25:52.374Z,11.45
2017-11-04T02:28:21.499Z,11.45
2017-11-04T02:30:50.292Z,11.31
2017-11-04T02:33:18.654Z,11.38
2017-11-04T02:35:46.994Z,11.41
2017-11-04T02:38:15.817Z,11.14
2017-11-04T02:40:44.999Z,10.90
2017-11-04T02:43:13.368Z,11.07
2017-11-04T02:45:41.736Z,11.09
2017-11-04T02:48:10.934Z,11.33
2017-11-04T02:50:39.296Z,11.46
2017-11-04T02:53:08.803Z,11.44
2017-11-04T02:55:37.137Z,11.38
2017-11-04T02:58:06.176Z,11.22
2017-11-04T03:00:34.556Z,11.33
2017-11-04T03:03:04.176Z,11.13
2017-11-04T03:05:32.532Z,11.21
2017-11-04T03:08:00.933Z,11.08
2017-11-04T03:10:29.288Z,11.10
2017-11-04T03:12:57.630Z,11.14
2017-11-04T03:15:26.965Z,11.07
2017-11-04T03:17:55.312Z,11.02
2017-11-04T03:20:24.309Z,11.05
2017-11-04T03:22:53.489Z,11.02
2017-11-04T03:25:22.637Z,11.08
2017-11-04T03:27:50.986Z,10.94
2017-11-04T03:30:20.133Z,10.91
2017-11-04T03:32:48.473Z,10.80
2017-11-04T03:35:17.504Z,10.61
2017-11-04T03:37:45.951Z,10.65
2017-11-04T03:40:14.309Z,10.76
2017-11-04T03:42:42.662Z,10.73
2017-11-04T03:45:11.368Z,10.79
2017-11-04T03:47:40.707Z,10.53
2017-11-04T03:50:09.033Z,10.51
2017-11-04T03:52:37.377Z,10.25
2017-11-04T03:55:05.713Z,10.34
2017-11-04T03:57:34.080Z,10.37
2017-11-04T04:00:02.983Z,10.26
2017-11-04T04:02:31.323Z,10.10
2017-11-04T04:04:59.676Z,10.17
2017-11-04T04:07:28.075Z,9.96
2017-11-04T04:09:56.478Z,9.83
2017-11-04T04:12:24.885Z,9.99
2017-11-04T04:14:53.336Z,9.93
2017-11-04T04:17:21.993Z,10.04
2017-11-04T04:19:50.579Z,9.80
2017-11-04T04:22:20.179Z,9.82
2017-11-04T04:24:49.412Z,9.81
2017-11-04T04:27:18.571Z,9.82
2017-11-04T04:29:47.734Z,9.86
2017-11-04T04:32:16.093Z,9.88
2017-11-04T04:34:46.135Z,9.88
2017-11-04T04:37:14.509Z,9.87
2017-11-04T04:39:42.877Z,9.77
2017-11-04T04:42:12.013Z,9.81
2017-11-04T04:44:40.877Z,9.80
2017-11-04T04:47:09.808Z,9.82
2017-11-04T04:49:38.967Z,9.81
2017-11-04T04:52:08.062Z,9.88
2017-11-04T04:54:36.410Z,9.84
2017-11-04T04:57:05.534Z,9.68
2017-11-04T04:59:35.279Z,9.57
2017-11-04T05:02:03.630Z,9.58
2017-11-04T05:04:31.965Z,9.62
2017-11-04T05:07:00.488Z,9.66
2017-11-04T05:09:29.886Z,9.74
2017-11-04T05:11:58.346Z,9.79
2017-11-04T05:14:27.413Z,9.88
2017-11-04T05:16:55.758Z,9.90
2017-11-04T05:19:24.989Z,9.87
2017-11-04T05:21:53.486Z,9.59
2017-11-04T05:24:21.842Z,9.50
2017-11-04T05:26:50.196Z,9.48
2017-11-04T05:29:19.442Z,9.54
2017-11-04T05:31:48.614Z,9.34
2017-11-04T05:34:18.046Z,9.44
2017-11-04T05:36:47.903Z,9.48
2017-11-04T05:39:16.249Z,9.58
2017-11-04T05:41:45.361Z,9.67
2017-11-04T05:44:14.747Z,9.68
2017-11-04T05:46:44.930Z,9.74
2017-11-04T05:49:14.098Z,9.76
2017-11-04T05:51:42.621Z,9.45
2017-11-04T05:54:10.993Z,9.57
2017-11-04T05:56:39.930Z,9.46
2017-11-04T05:59:09.520Z,9.63
2017-11-04T06:01:37.918Z,9.54
2017-11-04T06:04:07.248Z,9.51
2017-11-04T06:06:35.613Z,9.46
2017-11-04T06:09:03.960Z,9.37
2017-11-04T06:11:32.331Z,9.42
2017-11-04T06:14:03.822Z,9.41
2017-11-04T06:16:32.921Z,9.21
2017-11-04T06:19:02.353Z,9.29
2017-11-04T06:21:30.699Z,9.15
2017-11-04T06:23:59.793Z,9.08
2017-11-04T06:26:30.337Z,9.23
2017-11-04T06:28:58.684Z,8.95
2017-11-04T06:31:27.042Z,8.97
2017-11-04T06:33:56.568Z,9.04
2017-11-04T06:36:25.512Z,9.15
2017-11-04T06:38:53.896Z,9.35
2017-11-04T06:41:22.944Z,9.22
2017-11-04T06:43:53.101Z,9.16
2017-11-04T06:46:22.267Z,9.17
2017-11-04T06:48:51.398Z,9.23
2017-11-04T06:51:21.137Z,9.10
2017-11-04T06:53:50.923Z,9.22
2017-11-04T06:56:19.665Z,9.02
2017-11-04T06:58:48.031Z,9.16
2017-11-04T07:01:16.392Z,9.23
2017-11-04T07:03:44.784Z,9.26
2017-11-04T07:06:13.150Z,9.37
2017-11-04T07:08:41.501Z,9.64
2017-11-04T07:11:09.892Z,9.94
2017-11-04T07:13:38.259Z,10.44
2017-11-04T07:16:06.830Z,10.87
2017-11-04T07:18:36.562Z,10.96
2017-11-04T07:21:04.915Z,11.72
2017-11-04T07:23:35.286Z,12.34
2017-11-04T07:26:03.705Z,12.48
2017-11-04T07:28:32.942Z,12.38
2017-11-04T07:31:01.277Z,12.04
2017-11-04T07:33:30.426Z,11.73
2017-11-04T07:35:59.981Z,12.82
2017-11-04T07:38:29.112Z,13.15
2017-11-04T07:40:57.627Z,12.96
2017-11-04T07:43:27.693Z,12.54
2017-11-04T07:45:56.813Z,12.02
2017-11-04T07:48:25.685Z,11.88
2017-11-04T07:50:54.053Z,11.96
2017-11-04T07:53:22.393Z,11.79
2017-11-04T07:55:51.205Z,11.80
2017-11-04T07:58:21.043Z,12.13
2017-11-04T08:00:49.422Z,12.20
2017-11-04T08:03:18.620Z,12.24
2017-11-04T08:05:47.736Z,12.03
2017-11-04T08:08:17.437Z,12.02
2017-11-04T08:10:46.081Z,11.80
2017-11-04T08:13:14.422Z,11.75
2017-11-04T08:15:42.742Z,11.72
2017-11-04T08:18:12.025Z,11.54
2017-11-04T08:20:40.380Z,11.07
2017-11-04T08:23:08.717Z,11.19
2017-11-04T08:25:37.511Z,11.09
2017-11-04T08:28:07.320Z,11.08
2017-11-04T08:30:36.419Z,11.33
2017-11-04T08:33:05.577Z,11.49
2017-11-04T08:35:35.547Z,11.49
2017-11-04T08:38:05.476Z,11.56
2017-11-04T08:40:34.707Z,11.86
2017-11-04T08:43:03.067Z,11.93
2017-11-04T08:45:31.436Z,12.15
2017-11-04T08:48:00.697Z,11.66
2017-11-04T08:50:29.424Z,11.50
2017-11-04T08:52:57.778Z,11.44
2017-11-04T08:55:27.718Z,11.62
2017-11-04T08:57:56.074Z,11.77
2017-11-04T09:00:24.787Z,12.15
2017-11-04T09:02:53.941Z,12.53
2017-11-04T09:05:25.317Z,13.14
2017-11-04T09:07:54.425Z,13.08
2017-11-04T09:10:24.443Z,13.01
2017-11-04T09:12:54.348Z,13.26
2017-11-04T09:15:24.558Z,13.05
2017-11-04T09:17:53.720Z,12.51
2017-11-04T09:20:22.106Z,12.38
2017-11-04T09:22:51.241Z,12.39
2017-11-04T09:25:20.381Z,12.89
2017-11-04T09:27:49.606Z,12.93
2017-11-04T09:30:17.981Z,13.21
2017-11-04T09:32:46.580Z,13.82
2017-11-04T09:35:15.882Z,14.44
2017-11-04T09:37:45.461Z,14.56
2017-11-04T09:40:13.835Z,14.85
2017-11-04T09:42:42.237Z,14.73
2017-11-04T09:45:12.155Z,14.98
2017-11-04T09:47:40.565Z,15.00
2017-11-04T09:50:08.934Z,14.89
2017-11-04T09:52:38.939Z,15.10
2017-11-04T09:55:07.399Z,15.53
2017-11-04T09:57:36.162Z,16.28
2017-11-04T10:00:04.750Z,16.31
2017-11-04T10:02:33.121Z,16.25
2017-11-04T10:05:02.062Z,16.53
2017-11-04T10:07:30.623Z,17.43
2017-11-04T10:09:58.986Z,17.20
2017-11-04T10:12:27.313Z,17.43
2017-11-04T10:14:55.656Z,17.88
2017-11-04T10:17:24.069Z,18.65
2017-11-04T10:19:52.454Z,18.51
2017-11-04T10:22:20.834Z,18.47
2017-11-04T10:24:49.880Z,18.87
2017-11-04T10:27:18.255Z,17.33
2017-11-04T10:29:47.475Z,17.61
2017-11-04T10:32:16.649Z,18.40
2017-11-04T10:34:45.012Z,20.21
2017-11-04T10:37:13.398Z,21.95
2017-11-04T10:39:42.687Z,22.44
2017-11-04T10:42:13.438Z,22.66
2017-11-04T10:44:41.770Z,22.10
2017-11-04T10:47:10.254Z,20.57
2017-11-04T10:49:38.612Z,19.76
2017-11-04T10:52:06.987Z,20.00
2017-11-04T10:54:35.417Z,20.66
2017-11-04T10:57:04.805Z,20.08
2017-11-04T10:59:33.925Z,19.17
2017-11-04T11:02:02.898Z,19.18
2017-11-04T11:04:31.241Z,19.54
2017-11-04T11:07:00.001Z,20.19
2017-11-04T11:09:29.324Z,20.95
2017-11-04T11:11:58.714Z,20.53
2017-11-04T11:14:27.066Z,18.74
2017-11-04T11:16:55.458Z,16.88
2017-11-04T11:19:24.264Z,17.06
2017-11-04T11:21:52.618Z,16.31
2017-11-04T11:24:22.335Z,15.91
2017-11-04T11:26:51.160Z,15.47
2017-11-04T11:29:19.499Z,14.95
2017-11-04T11:31:49.711Z,15.15
2017-11-04T11:34:18.818Z,15.22
2017-11-04T11:36:47.169Z,15.34
2017-11-04T11:39:16.391Z,14.91
2017-11-04T11:41:44.738Z,15.21
2017-11-04T11:44:13.891Z,15.26
2017-11-04T11:46:42.345Z,15.08
2017-11-04T11:49:12.593Z,14.69
2017-11-04T11:51:42.232Z,15.13
2017-11-04T11:54:12.023Z,15.12
2017-11-04T11:56:41.291Z,15.05
2017-11-04T11:59:09.626Z,15.38
2017-11-04T12:01:38.036Z,15.42
2017-11-04T12:04:07.133Z,16.34
2017-11-04T12:06:36.282Z,16.54
2017-11-04T12:09:04.810Z,17.26
2017-11-04T12:11:33.940Z,18.08
2017-11-04T12:14:02.348Z,18.10
2017-11-04T12:17:00.251Z,17.92
2017-11-04T12:22:23.443Z,17.18
2017-11-04T12:24:51.823Z,16.81
2017-11-04T12:27:21.114Z,16.34
2017-11-04T12:29:51.233Z,16.09
2017-11-04T12:32:20.326Z,15.93
2017-11-04T12:34:50.599Z,15.23
2017-11-04T12:37:19.056Z,15.10
2017-11-04T12:39:47.418Z,15.18
2017-11-04T12:42:16.850Z,14.97
2017-11-04T12:44:45.237Z,14.83
2017-11-04T12:47:13.589Z,15.05
2017-11-04T12:49:41.971Z,15.47
2017-11-04T12:52:10.842Z,16.29
2017-11-04T12:54:39.938Z,16.96
2017-11-04T12:57:09.094Z,16.95
2017-11-04T12:59:38.266Z,18.42
2017-11-04T13:02:07.764Z,18.81
2017-11-04T13:04:36.139Z,18.55
2017-11-04T13:07:04.502Z,18.85
2017-11-04T13:09:33.518Z,18.27
2017-11-04T13:12:02.467Z,17.55
2017-11-04T13:14:30.892Z,16.65
2017-11-04T13:16:59.326Z,16.61
2017-11-04T13:19:28.577Z,16.78
2017-11-04T13:21:57.204Z,16.29
2017-11-04T13:24:25.573Z,16.10
2017-11-04T13:26:55.559Z,16.07
2017-11-04T13:29:23.938Z,16.24
2017-11-04T13:31:53.556Z,15.58
2017-11-04T13:34:21.915Z,15.51
2017-11-04T13:36:51.239Z,15.55
2017-11-04T13:39:19.613Z,15.57
2017-11-04T13:41:48.113Z,15.60
2017-11-04T13:44:17.210Z,15.68
2017-11-04T13:46:45.570Z,15.79
2017-11-04T13:49:14.821Z,15.64
2017-11-04T13:51:43.930Z,15.72
2017-11-04T13:54:13.103Z,15.46
2017-11-04T13:56:42.781Z,15.32
2017-11-04T13:59:11.470Z,15.56
2017-11-04T14:01:40.593Z,15.55
2017-11-04T14:04:09.867Z,15.22
2017-11-04T14:06:38.568Z,15.41
2017-11-04T14:09:06.997Z,15.35
2017-11-04T14:11:37.775Z,15.40
2017-11-04T14:14:06.160Z,15.38
2017-11-04T14:16:34.591Z,15.14
2017-11-04T14:19:03.690Z,14.95
2017-11-04T14:21:32.907Z,14.74
2017-11-04T14:24:01.288Z,14.95
2017-11-04T14:26:29.696Z,15.05
2017-11-04T14:28:58.109Z,14.94
2017-11-04T14:31:27.937Z,14.85
2017-11-04T14:33:57.220Z,14.75
2017-11-04T14:36:26.596Z,14.90
2017-11-04T14:38:56.796Z,14.78
2017-11-04T14:41:25.854Z,14.80
2017-11-04T14:43:55.370Z,14.89
2017-11-04T14:46:24.508Z,14.89
2017-11-04T14:48:52.882Z,14.90
2017-11-04T14:51:21.245Z,14.97
2017-11-04T14:53:50.478Z,14.89
2017-11-04T14:56:18.852Z,14.76
2017-11-04T14:58:47.252Z,15.00
2017-11-04T15:01:15.806Z,14.90
2017-11-04T15:03:44.154Z,14.80
2017-11-04T15:06:14.679Z,14.79
2017-11-04T15:08:43.045Z,14.49
2017-11-04T15:11:11.425Z,14.56
2017-11-04T15:13:39.822Z,14.43
2017-11-04T15:16:08.224Z,14.60
2017-11-04T15:18:36.612Z,14.42
2017-11-04T15:21:06.324Z,14.49
2017-11-04T15:23:35.828Z,14.54
2017-11-04T15:26:04.181Z,14.42
2017-11-04T15:28:32.729Z,14.46
2017-11-04T15:31:01.880Z,14.47
2017-11-04T15:33:30.634Z,14.46
2017-11-04T15:35:59.022Z,14.48
2017-11-04T15:38:27.355Z,14.44
2017-11-04T15:40:55.730Z,13.98
2017-11-04T15:43:25.855Z,14.20
2017-11-04T15:45:54.215Z,14.08
2017-11-04T15:48:23.285Z,14.12
2017-11-04T15:50:53.482Z,14.24
2017-11-04T15:53:22.842Z,14.16
2017-11-04T15:55:51.215Z,14.10
2017-11-04T15:58:20.878Z,14.18
2017-11-04T16:00:50.004Z,14.01
2017-11-04T16:03:18.769Z,13.88
2017-11-04T16:05:47.149Z,13.90
2017-11-04T16:08:15.632Z,13.69
2017-11-04T16:10:44.815Z,13.63
2017-11-04T16:13:13.976Z,13.43
2017-11-04T16:15:43.099Z,13.75
2017-11-04T16:18:12.068Z,13.33
2017-11-04T16:20:40.449Z,13.27
2017-11-04T16:23:11.055Z,13.28
2017-11-04T16:25:39.421Z,13.42
2017-11-04T16:28:07.847Z,13.65
2017-11-04T16:30:36.214Z,13.69
2017-11-04T16:33:04.579Z,13.72
2017-11-04T16:35:33.455Z,13.69
2017-11-04T16:38:01.805Z,13.53
2017-11-04T16:40:30.208Z,13.59
2017-11-04T16:42:58.587Z,13.47
2017-11-04T16:45:26.934Z,13.26
2017-11-04T16:47:56.046Z,13.30
2017-11-04T16:50:24.453Z,13.34
2017-11-04T16:52:52.800Z,13.38
2017-11-04T16:55:21.588Z,13.57
2017-11-04T16:57:50.049Z,13.32
2017-11-04T17:00:18.456Z,13.30
2017-11-04T17:02:46.825Z,13.30
2017-11-04T17:05:15.287Z,13.24
2017-11-04T17:07:44.088Z,13.26
2017-11-04T17:10:13.456Z,13.00
2017-11-04T17:12:42.068Z,13.00
2017-11-04T17:15:11.432Z,13.13
2017-11-04T17:17:40.062Z,13.08
2017-11-04T17:20:09.807Z,13.07
2017-11-04T17:22:38.766Z,13.00
2017-11-04T17:25:07.795Z,13.10
2017-11-04T17:27:36.182Z,13.01
2017-11-04T17:30:04.573Z,13.03
2017-11-04T17:32:33.186Z,13.12
2017-11-04T17:35:01.570Z,13.22
2017-11-04T17:37:30.018Z,13.19
2017-11-04T17:39:59.107Z,13.16
2017-11-04T17:42:28.443Z,13.21
2017-11-04T17:44:57.645Z,13.10
2017-11-04T17:47:26.015Z,12.89
2017-11-04T17:49:54.406Z,12.86
2017-11-04T17:52:23.698Z,12.63
2017-11-04T17:54:52.079Z,12.66
2017-11-04T17:57:20.728Z,12.71
2017-11-04T17:59:49.069Z,12.68
2017-11-04T18:02:19.176Z,12.69
2017-11-04T18:04:47.677Z,12.70
2017-11-04T18:07:16.686Z,12.60
2017-11-04T18:09:45.062Z,12.74
2017-11-04T18:12:13.480Z,12.47
2017-11-04T18:14:42.174Z,12.53
2017-11-04T18:17:10.541Z,12.65
2017-11-04T18:19:38.934Z,12.57
2017-11-04T18:22:07.419Z,12.44
2017-11-04T18:24:35.806Z,12.36
2017-11-04T18:27:04.452Z,12.10
2017-11-04T18:29:32.818Z,12.28
2017-11-04T18:32:01.722Z,12.22
2017-11-04T18:34:30.954Z,12.10
2017-11-04T18:36:59.327Z,12.09
2017-11-04T18:39:27.698Z,12.26
2017-11-04T18:41:57.060Z,12.13
2017-11-04T18:44:26.359Z,12.16
2017-11-04T18:46:54.755Z,12.09
2017-11-04T18:49:24.072Z,12.08
2017-11-04T18:51:52.433Z,12.27
2017-11-04T18:54:20.787Z,12.35
2017-11-04T18:56:49.180Z,12.22
2017-11-04T18:59:19.333Z,12.10
2017-11-04T19:01:48.506Z,11.87
2017-11-04T19:04:16.902Z,11.95
2017-11-04T19:06:46.684Z,11.70
2017-11-04T19:09:15.587Z,11.98
2017-11-04T19:11:44.246Z,12.00
2017-11-04T19:14:12.620Z,12.06
2017-11-04T19:16:41.686Z,11.88
2017-11-04T19:19:11.073Z,11.74
2017-11-04T19:21:39.427Z,11.86
2017-11-04T19:24:08.550Z,11.68
2017-11-04T19:26:36.908Z,11.81
2017-11-04T19:29:05.282Z,11.77
2017-11-04T19:31:33.659Z,11.82
2017-11-04T19:34:02.760Z,11.99
2017-11-04T19:36:32.836Z,11.89
2017-11-04T19:39:01.238Z,11.96
2017-11-04T19:41:30.391Z,11.90
2017-11-04T19:43:58.741Z,11.92
2017-11-04T19:46:27.829Z,11.91
2017-11-04T19:48:56.282Z,11.88
2017-11-04T19:51:28.539Z,11.98
2017-11-04T19:53:58.772Z,11.87
2017-11-04T19:56:27.142Z,12.03
2017-11-04T19:58:56.210Z,11.90
2017-11-04T20:01:24.598Z,11.79
2017-11-04T20:03:52.952Z,12.02
2017-11-04T20:06:21.373Z,12.09
2017-11-04T20:08:50.133Z,12.21
2017-11-04T20:11:18.523Z,12.34
2017-11-04T20:13:46.896Z,12.37
2017-11-04T20:16:15.589Z,12.33
2017-11-04T20:18:43.938Z,12.01
2017-11-04T20:21:12.287Z,12.09
2017-11-04T20:23:41.445Z,12.22
2017-11-04T20:26:10.203Z,12.17
2017-11-04T20:28:38.617Z,12.33
2017-11-04T20:31:07.255Z,12.42
2017-11-04T20:33:36.356Z,12.30
2017-11-04T20:36:05.544Z,12.39
2017-11-04T20:38:34.722Z,12.28
2017-11-04T20:41:03.111Z,12.24
2017-11-04T20:43:31.487Z,12.12
2017-11-04T20:46:00.654Z,12.42
2017-11-04T20:48:29.957Z,12.41
2017-11-04T20:50:58.436Z,12.44
2017-11-04T20:53:26.956Z,12.47
2017-11-04T20:55:55.400Z,12.38
2017-11-04T20:58:24.541Z,12.52
2017-11-04T21:00:53.157Z,12.57
2017-11-04T21:03:21.722Z,12.51
2017-11-04T21:05:50.102Z,12.52
2017-11-04T21:08:18.516Z,12.43
2017-11-04T21:10:46.902Z,12.44
2017-11-04T21:13:15.317Z,12.75
2017-11-04T21:15:43.759Z,12.83
2017-11-04T21:18:12.937Z,12.69
2017-11-04T21:20:41.302Z,12.79
2017-11-04T21:23:09.780Z,12.89
2017-11-04T21:25:38.709Z,13.15
2017-11-04T21:28:07.292Z,13.04
2017-11-04T21:30:35.705Z,13.14
2017-11-04T21:33:04.077Z,13.14
2017-11-04T21:35:33.233Z,13.16
2017-11-04T21:38:01.636Z,13.27
2017-11-04T21:40:30.811Z,13.14
2017-11-04T21:42:59.983Z,13.08
2017-11-04T21:45:29.963Z,13.08
2017-11-04T21:47:58.693Z,13.03
2017-11-04T21:50:27.064Z,13.09
2017-11-04T21:52:55.940Z,13.10
2017-11-04T21:55:25.109Z,13.17
2017-11-04T21:57:53.477Z,13.26
2017-11-04T22:00:21.948Z,13.40
2017-11-04T22:02:51.238Z,13.45
2017-11-04T22:05:19.579Z,13.36
2017-11-04T22:07:50.434Z,13.39
2017-11-04T22:10:18.794Z,13.38
2017-11-04T22:12:47.969Z,13.50
2017-11-04T22:15:16.430Z,13.51
2017-11-04T22:17:44.814Z,13.42
2017-11-04T22:20:13.189Z,13.60
2017-11-04T22:22:43.074Z,13.55
2017-11-04T22:25:12.363Z,13.63
2017-11-04T22:27:41.488Z,13.82
2017-11-04T22:30:10.018Z,13.87
2017-11-04T22:32:38.369Z,13.88
2017-11-04T22:35:08.104Z,13.88
2017-11-04T22:37:37.786Z,13.89
2017-11-04T22:40:06.194Z,13.84
2017-11-04T22:42:34.547Z,14.01
2017-11-04T22:45:02.930Z,14.36
2017-11-04T22:47:31.322Z,14.40
2017-11-04T22:49:59.714Z,14.29
2017-11-04T22:52:28.709Z,14.38
2017-11-04T22:54:58.555Z,14.31
2017-11-04T22:57:27.704Z,14.30
2017-11-04T22:59:57.086Z,14.43
2017-11-04T23:02:25.503Z,14.42
2017-11-04T23:04:55.388Z,14.40
2017-11-04T23:07:23.772Z,14.53
2017-11-04T23:09:53.627Z,14.44
2017-11-04T23:12:22.171Z,14.37
2017-11-04T23:14:51.342Z,14.47
2017-11-04T23:17:19.714Z,14.32
2017-11-04T23:19:48.042Z,14.49
2017-11-04T23:22:17.375Z,14.40
2017-11-04T23:24:46.866Z,14.51
2017-11-04T23:27:15.473Z,14.60
2017-11-04T23:29:43.872Z,14.47
2017-11-04T23:32:12.216Z,14.68
2017-11-04T23:34:41.665Z,14.59
2017-11-04T23:37:12.037Z,14.47
2017-11-04T23:39:40.407Z,14.47
2017-11-04T23:42:08.902Z,14.58
2017-11-04T23:44:38.515Z,14.74
2017-11-04T23:47:08.405Z,14.65
2017-11-04T23:49:37.340Z,14.62
2017-11-04T23:52:06.421Z,14.60
2017-11-04T23:54:35.588Z,14.65
2017-11-04T23:57:04.542Z,14.69
2017-11-04T23:59:33.014Z,14.78
